Larvik — C6VC2 — position and weather

sailwx.info

Track history (hours):
 
Tides and Currents Weather Stations Pressure Air Temp Water Temp Dewpoint Dewpoint Depression Visibility Wind Speed Wind Dir Waves Ship Positions

Larvik

Last reported at 2018-Feb-13 18:25 UTC. Time now 2018-Feb-19 14:20 UTC.
Position N 29°29' W 094°51'.

Length 214 m; draft 7.4 m.

Type: Ship (hazmat cat D). MMSI: 308371000.

Date/timePositionNaut miles runAvg speedWind from/ knotsBaromVisibWave heightAir tempDewpointWater temp
2018-Feb-13 18:25N 29°29' W 094°51'511.6
2018-Feb-13 18:00N 29°33' W 094°54'611.2
2018-Feb-13 17:30N 29°38' W 094°58'510.4
2018-Feb-13 17:00N 29°42' W 095°01'3 0.1
2018-Feb-12 05:20N 29°44' W 095°03'1 4.2
2018-Feb-12 05:00N 29°44' W 095°02'3 6.9
2018-Feb-12 04:30N 29°41' W 094°59'510.4
2018-Feb-12 04:00N 29°36' W 094°57'510.9
2018-Feb-12 03:30N 29°32' W 094°54'611.0
2018-Feb-12 03:00N 29°27' W 094°51'611.1
2018-Feb-12 02:30N 29°22' W 094°48'610.7
2018-Feb-12 01:56N 29°20' W 094°41'9 6.0
2018-Feb-12 00:24N 29°11' W 094°40'0 0.0
2018-Feb-10 10:04N 29°11' W 094°40'0 0.1
2018-Feb-10 09:43N 29°11' W 094°40'0 0.1
2018-Feb-10 09:25N 29°11' W 094°40'0 0.0
2018-Feb-10 08:58N 29°11' W 094°40'0 0.0
2018-Feb-10 08:16N 29°11' W 094°40'0 0.0
2018-Feb-10 05:28N 29°11' W 094°40'  
Track history (hours):
 
Tides and Currents Weather Stations Pressure Air Temp Water Temp Dewpoint Dewpoint Depression Visibility Wind Speed Wind Dir Waves Ship Positions

Larvik

Last reported at 2018-Feb-13 18:25 UTC. Time now 2018-Feb-19 14:20 UTC.
Position N 29°29' W 094°51'.

Length 214 m; draft 7.4 m.

Type: Ship (hazmat cat D). MMSI: 308371000.

Date/timePositionNaut miles runAvg speedWind from/ knotsBaromVisibWave heightAir tempDewpointWater temp
2018-Feb-13 18:25N 29°29' W 094°51'511.6
2018-Feb-13 18:00N 29°33' W 094°54'611.2
2018-Feb-13 17:30N 29°38' W 094°58'510.4
2018-Feb-13 17:00N 29°42' W 095°01'3 0.1
2018-Feb-12 05:20N 29°44' W 095°03'1 4.2
2018-Feb-12 05:00N 29°44' W 095°02'3 6.9
2018-Feb-12 04:30N 29°41' W 094°59'510.4
2018-Feb-12 04:00N 29°36' W 094°57'510.9
2018-Feb-12 03:30N 29°32' W 094°54'611.0
2018-Feb-12 03:00N 29°27' W 094°51'611.1
2018-Feb-12 02:30N 29°22' W 094°48'610.7
2018-Feb-12 01:56N 29°20' W 094°41'9 6.0
2018-Feb-12 00:24N 29°11' W 094°40'0 0.0
2018-Feb-10 10:04N 29°11' W 094°40'0 0.1
2018-Feb-10 09:43N 29°11' W 094°40'0 0.1
2018-Feb-10 09:25N 29°11' W 094°40'0 0.0
2018-Feb-10 08:58N 29°11' W 094°40'0 0.0
2018-Feb-10 08:16N 29°11' W 094°40'0 0.0
2018-Feb-10 05:28N 29°11' W 094°40'  

Dump ship's entire track history